createdAt,value
2023-01-15T00:04:47.097Z,54.90
2023-01-15T00:09:52.841Z,55.00
2023-01-15T00:14:59.706Z,53.75
2023-01-15T00:20:05.934Z,57.00
2023-01-15T00:25:30.973Z,55.55
2023-01-15T00:30:36.701Z,55.08
2023-01-15T00:35:45.538Z,57.97
2023-01-15T00:40:54.454Z,59.55
2023-01-15T00:46:00.258Z,58.13
2023-01-15T00:51:06.658Z,56.47
2023-01-15T00:56:12.418Z,55.45
2023-01-15T01:01:19.029Z,55.45
2023-01-15T01:06:25.418Z,57.55
2023-01-15T01:11:35.552Z,55.97
2023-01-15T01:16:42.210Z,57.20
2023-01-15T01:21:48.414Z,53.33
2023-01-15T01:32:00.550Z,55.85
2023-01-15T01:37:06.490Z,53.60
2023-01-15T01:42:16.945Z,53.05
2023-01-15T01:47:25.747Z,54.63
2023-01-15T01:52:43.538Z,53.47
2023-01-15T01:57:51.007Z,53.13
2023-01-15T02:02:57.404Z,55.40
2023-01-15T02:08:05.067Z,53.35
2023-01-15T02:13:21.561Z,57.83
2023-01-15T02:18:34.010Z,57.17
2023-01-15T02:23:45.824Z,57.33
2023-01-15T02:28:53.049Z,61.33
2023-01-15T02:34:17.181Z,63.15
2023-01-15T02:39:25.531Z,60.10
2023-01-15T02:44:33.367Z,60.08
2023-01-15T02:49:43.429Z,53.10
2023-01-15T02:54:56.339Z,48.70
2023-01-15T03:00:04.722Z,56.22
2023-01-15T03:05:23.088Z,61.60
2023-01-15T03:10:50.408Z,55.90
2023-01-15T03:16:17.014Z,60.97
2023-01-15T03:21:30.573Z,67.07
2023-01-15T03:26:36.736Z,50.20
2023-01-15T03:36:47.535Z,57.97
2023-01-15T03:41:53.433Z,59.60
2023-01-15T03:47:06.090Z,69.45
2023-01-15T03:52:16.736Z,69.97
2023-01-15T03:57:29.616Z,68.78
2023-01-15T04:02:35.112Z,57.97
2023-01-15T04:12:46.462Z,53.90
2023-01-15T04:22:57.757Z,48.30
2023-01-15T04:28:03.419Z,46.97
2023-01-15T04:33:08.902Z,47.45
2023-01-15T04:38:14.853Z,36.10
2023-01-15T04:43:39.207Z,33.80
2023-01-15T04:48:44.672Z,36.70
2023-01-15T04:53:51.249Z,36.67
2023-01-15T04:58:57.046Z,27.05
2023-01-15T05:04:03.161Z,28.98
2023-01-15T05:09:09.753Z,28.33
2023-01-15T05:14:15.182Z,25.88
2023-01-15T05:19:20.949Z,19.70
2023-01-15T05:24:26.773Z,29.45
2023-01-15T05:29:32.801Z,27.58
2023-01-15T05:34:39.157Z,27.63
2023-01-15T05:44:50.166Z,26.05
2023-01-15T05:49:55.798Z,19.98
2023-01-15T05:55:02.097Z,16.67
2023-01-15T06:00:08.404Z,21.73
2023-01-15T06:05:21.650Z,24.27
2023-01-15T06:10:27.697Z,18.88
2023-01-15T06:15:33.984Z,19.08
2023-01-15T06:20:40.135Z,16.02
2023-01-15T06:25:45.903Z,11.40
2023-01-15T06:30:52.058Z,20.10
2023-01-15T06:35:57.762Z,22.38
2023-01-15T06:41:04.524Z,22.48
2023-01-15T06:46:29.769Z,14.98
2023-01-15T06:51:35.739Z,22.17
2023-01-15T06:56:41.677Z,12.15
2023-01-15T07:01:46.931Z,22.67
2023-01-15T07:06:52.789Z,13.77
2023-01-15T07:11:58.638Z,18.63
2023-01-15T07:17:05.070Z,16.10
2023-01-15T07:22:12.865Z,14.25
2023-01-15T07:27:18.599Z,11.80
2023-01-15T07:32:24.348Z,17.00
2023-01-15T07:37:29.792Z,8.80
2023-01-15T07:42:53.632Z,15.27
2023-01-15T07:48:17.879Z,10.75
2023-01-15T07:53:23.361Z,11.45
2023-01-15T07:58:29.067Z,18.77
2023-01-15T08:03:34.868Z,9.18
2023-01-15T08:08:40.338Z,11.23
2023-01-15T08:14:04.111Z,24.63
2023-01-15T08:19:09.594Z,12.48
2023-01-15T08:24:16.001Z,13.70
2023-01-15T08:29:22.205Z,9.00
2023-01-15T08:39:33.377Z,14.27
2023-01-15T08:44:39.120Z,12.05
2023-01-15T08:49:44.856Z,11.13
2023-01-15T08:54:50.612Z,11.77
2023-01-15T08:59:56.235Z,10.30
2023-01-15T09:05:02.098Z,13.82
2023-01-15T09:10:08.232Z,8.13
2023-01-15T09:15:14.102Z,13.07
2023-01-15T09:20:19.792Z,8.90
2023-01-15T09:25:25.996Z,6.57
2023-01-15T09:35:37.402Z,13.23
2023-01-15T09:40:52.105Z,7.43
2023-01-15T09:45:59.636Z,9.45
2023-01-15T09:51:20.615Z,8.32
2023-01-15T09:56:32.117Z,7.22
2023-01-15T10:01:37.874Z,13.30
2023-01-15T10:06:56.329Z,10.52
2023-01-15T10:12:21.616Z,8.57
2023-01-15T10:17:32.145Z,8.18
2023-01-15T10:22:57.698Z,10.85
2023-01-15T10:33:28.597Z,9.23
2023-01-15T10:38:38.720Z,10.63
2023-01-15T10:43:51.586Z,8.85
2023-01-15T10:49:00.488Z,13.43
2023-01-15T10:54:30.353Z,7.90
2023-01-15T10:59:45.847Z,11.77
2023-01-15T11:04:51.824Z,10.10
2023-01-15T11:09:57.523Z,8.18
2023-01-15T11:15:22.695Z,6.97
2023-01-15T11:20:34.613Z,7.38
2023-01-15T11:25:41.535Z,9.10
2023-01-15T11:30:56.943Z,12.80
2023-01-15T11:36:04.233Z,10.13
2023-01-15T11:41:09.902Z,8.68
2023-01-15T11:46:48.678Z,11.77
2023-01-15T11:51:54.944Z,7.28
2023-01-15T11:57:01.216Z,10.05
2023-01-15T12:02:21.684Z,12.40
2023-01-15T12:07:28.407Z,15.52
2023-01-15T12:12:35.489Z,12.93
2023-01-15T12:17:50.891Z,9.13
2023-01-15T12:22:56.402Z,9.20
2023-01-15T12:28:06.084Z,8.63
2023-01-15T12:33:46.714Z,6.32
2023-01-15T12:39:06.558Z,9.75
2023-01-15T12:44:30.890Z,6.43
2023-01-15T12:49:58.912Z,6.70
2023-01-15T12:55:13.048Z,8.85
2023-01-15T13:00:30.099Z,6.63
2023-01-15T13:05:49.921Z,9.60
2023-01-15T13:10:55.742Z,12.32
2023-01-15T13:16:04.275Z,11.70
2023-01-15T13:21:17.594Z,10.35
2023-01-15T13:26:26.233Z,6.00
2023-01-15T13:31:49.803Z,6.25
2023-01-15T13:36:57.760Z,8.82
2023-01-15T13:42:21.669Z,9.68
2023-01-15T13:47:28.657Z,8.10
2023-01-15T13:52:38.521Z,5.80
2023-01-15T13:57:45.240Z,8.57
2023-01-15T14:02:58.437Z,9.23
2023-01-15T14:08:04.947Z,7.53
2023-01-15T14:13:22.541Z,8.63
2023-01-15T14:18:28.283Z,7.43
2023-01-15T14:23:43.289Z,8.77
2023-01-15T14:28:58.856Z,5.28
2023-01-15T14:34:14.796Z,8.50
2023-01-15T14:39:32.959Z,4.63
2023-01-15T14:44:38.921Z,4.65
2023-01-15T14:49:51.198Z,5.07
2023-01-15T14:54:57.247Z,7.20
2023-01-15T15:00:05.634Z,9.95
2023-01-15T15:05:17.119Z,6.55
2023-01-15T15:10:28.400Z,5.00
2023-01-15T15:15:40.481Z,8.27
2023-01-15T15:20:51.639Z,9.52
2023-01-15T15:26:02.582Z,7.82
2023-01-15T15:31:08.292Z,8.00
2023-01-15T15:41:39.247Z,10.63
2023-01-15T15:47:10.031Z,6.53
2023-01-15T15:52:24.242Z,9.30
2023-01-15T15:57:31.775Z,8.63
2023-01-15T16:02:42.999Z,10.02
2023-01-15T16:07:49.208Z,9.73
2023-01-15T16:12:56.232Z,9.10
2023-01-15T16:18:03.941Z,9.00
2023-01-15T16:23:21.731Z,9.35
2023-01-15T16:28:32.207Z,7.63
2023-01-15T16:33:38.823Z,10.57
2023-01-15T16:38:45.687Z,6.45
2023-01-15T16:44:08.065Z,5.50
2023-01-15T16:49:29.005Z,7.10
2023-01-15T16:54:34.596Z,6.05
2023-01-15T16:59:59.348Z,5.40
2023-01-15T17:05:17.407Z,7.60
2023-01-15T17:10:27.148Z,5.45
2023-01-15T17:15:33.053Z,5.88
2023-01-15T17:20:40.215Z,4.53
2023-01-15T17:25:45.506Z,5.28
2023-01-15T17:30:53.974Z,4.88
2023-01-15T17:36:02.193Z,6.25
2023-01-15T17:41:08.610Z,4.50
2023-01-15T17:46:14.496Z,5.78
2023-01-15T17:51:20.482Z,6.83
2023-01-15T17:56:44.096Z,7.88
2023-01-15T18:02:08.576Z,5.03
2023-01-15T18:07:14.867Z,6.20
2023-01-15T18:17:25.584Z,3.70
2023-01-15T18:22:31.374Z,8.00
2023-01-15T18:27:39.035Z,6.60
2023-01-15T18:32:46.370Z,6.85
2023-01-15T18:37:52.605Z,8.73
2023-01-15T18:43:16.229Z,8.55
2023-01-15T18:48:21.762Z,7.05
2023-01-15T18:53:26.950Z,5.30
2023-01-15T18:58:32.640Z,4.47
2023-01-15T19:03:37.918Z,6.00
2023-01-15T19:08:43.436Z,5.43
2023-01-15T19:14:08.624Z,6.30
2023-01-15T19:19:14.135Z,5.85
2023-01-15T19:24:19.890Z,4.00
2023-01-15T19:29:25.323Z,5.70
2023-01-15T19:34:33.894Z,4.88
2023-01-15T19:39:40.733Z,4.50
2023-01-15T19:50:22.587Z,4.25
2023-01-15T19:55:28.007Z,5.43
2023-01-15T20:00:36.758Z,5.00
2023-01-15T20:05:43.555Z,3.10
2023-01-15T20:10:50.327Z,5.03
2023-01-15T20:15:56.862Z,5.20
2023-01-15T20:21:02.267Z,5.70
2023-01-15T20:26:09.039Z,3.28
2023-01-15T20:31:21.662Z,4.68
2023-01-15T20:36:27.270Z,3.65
2023-01-15T20:41:51.000Z,3.27
2023-01-15T20:46:57.024Z,4.43
2023-01-15T20:52:02.811Z,5.25
2023-01-15T20:57:08.754Z,6.13
2023-01-15T21:02:14.637Z,4.05
2023-01-15T21:07:19.876Z,5.93
2023-01-15T21:12:25.147Z,4.68
2023-01-15T21:17:30.600Z,4.03
2023-01-15T21:22:36.258Z,3.57
2023-01-15T21:27:42.215Z,5.80
2023-01-15T21:32:47.817Z,5.27
2023-01-15T21:37:53.075Z,4.43
2023-01-15T21:43:16.570Z,4.28
2023-01-15T21:48:22.247Z,5.45
2023-01-15T21:53:28.029Z,4.17
2023-01-15T21:58:33.524Z,5.27
2023-01-15T22:03:39.473Z,6.80
2023-01-15T22:08:45.384Z,3.65
2023-01-15T22:13:52.515Z,4.87
2023-01-15T22:18:58.129Z,3.67
2023-01-15T22:24:04.266Z,5.33
2023-01-15T22:29:09.705Z,5.97
2023-01-15T22:34:15.665Z,6.15
2023-01-15T22:39:21.530Z,4.33
2023-01-15T22:44:26.918Z,6.17
2023-01-15T22:49:32.993Z,3.35
2023-01-15T22:54:38.539Z,8.95
2023-01-15T22:59:45.263Z,6.67
2023-01-15T23:04:51.233Z,5.38
2023-01-15T23:09:57.011Z,4.80
2023-01-15T23:15:02.745Z,6.67
2023-01-15T23:20:09.943Z,8.37
2023-01-15T23:25:15.289Z,8.25
2023-01-15T23:30:21.204Z,6.93
2023-01-15T23:35:26.995Z,6.65
2023-01-15T23:40:32.620Z,7.20
2023-01-15T23:45:57.118Z,4.83
2023-01-15T23:51:02.767Z,4.00
2023-01-15T23:56:09.388Z,4.63
